Portada
METAR-TAF:

METAR-TAF

Aeropuertos :

Copenhague, Dinamarca

Aeropuerto de Copenhague-Kastrup

latitud: 55-37N, longitud: 012-39E, altitud: 5 m

Observación

El informe se hizo hace 39 minutos, a las 21:20 UTC
Viento 9 kt del norte
Temperatura 15°C
Humedad 94%
Presión 1024 hPa
Visibilidad 10 km o más
Cielo cubierto a una altura de 3900 ft

METAR: EKCH 232120Z 35009KT 9999 OVC039 15/14 Q1024 NOSIG

Hora: 23:59 (21:59 UTC)

Pronóstico

El informe se hizo hace 5 horas y 7 minutos, a las 16:52 UTC
Pronóstico válido del 23 a las 18 UTC al 24 a las 18 UTC
Viento 6 kt del norte-noroeste
Visibilidad 10 km o más
Cielo nuboso a una altura de 2000 ft
Temporalmente
del 23 a las 19 UTC al 24 a las 08 UTC
Visibilidad: 4000 m
Cielo nuboso a una altura de 1000 ft
neblina

TAF: EKCH 231652Z 2318/2418 33006KT 9999 BKN020 TEMPO 2319/2408 4000 BR BKN010

Observaciones y pronósticos meteorológicos de más de 4000 aeropuertos (mensajes METAR y TAF).

Los puntos amarillos y rojos representan las estaciones disponibles.

Ponga el ratón en el punto deseado para ver el nombre de la estación.

Haga clic para ver las observaciones y los pronósticos meteorológicos.

Para cambiar el mapa : haga clic en los botones verdes con una cruz de color negro para hacer un zoom, en el botón verde con un guión para alejar o en las flechas verdes para mapas adyacentes.


METAR-TAF: